Time;durP1;ratioP1;P1;durP2;ratioP2;P2;SDS_P1;SDS_P2;PMS_P1;PMS_P2;Temp;Humidity;BMP_temperature;BMP_pressure;BME280_temperature;BME280_humidity;BME280_pressure;Samples;Min_cycle;Max_cycle;Signal;HPM_P1;HPM_P2
2023/03/15 00:00:22;;;;;;;8.70;3.80;;;5.00;6.60;;;;;;5029481;28;20178;-72
2023/03/15 00:02:48;;;;;;;4.87;3.20;;;4.40;5.70;;;;;;5048145;28;20205;-68
2023/03/15 00:05:13;;;;;;;10.80;3.60;;;4.40;5.60;;;;;;5045042;28;20804;-71
2023/03/15 00:07:40;;;;;;;8.40;3.73;;;4.30;7.00;;;;;;5046054;28;20208;-70
2023/03/15 00:10:06;;;;;;;9.97;3.53;;;4.30;6.90;;;;;;5048790;28;20713;-71
2023/03/15 00:12:33;;;;;;;6.23;3.37;;;4.30;4.00;;;;;;5050928;28;20459;-70
2023/03/15 00:14:58;;;;;;;6.37;3.60;;;4.20;5.20;;;;;;5048893;28;20427;-72
2023/03/15 00:17:24;;;;;;;7.27;3.73;;;4.20;5.40;;;;;;5042821;28;20534;-71
2023/03/15 00:19:50;;;;;;;8.03;3.63;;;4.20;5.90;;;;;;5047002;28;20193;-70
2023/03/15 00:22:15;;;;;;;9.67;3.67;;;4.10;7.30;;;;;;5048298;28;20721;-70
2023/03/15 00:24:41;;;;;;;9.93;3.27;;;4.50;8.10;;;;;;5047726;28;20181;-71
2023/03/15 00:27:07;;;;;;;6.67;3.60;;;4.00;9.90;;;;;;5032363;28;20653;-71
2023/03/15 00:29:32;;;;;;;12.87;3.80;;;4.00;13.30;;;;;;5043023;28;20185;-69
2023/03/15 00:31:58;;;;;;;6.43;3.90;;;4.00;13.80;;;;;;5041638;28;20193;-70
2023/03/15 00:34:26;;;;;;;8.37;3.63;;;3.90;14.70;;;;;;5048450;28;20597;-71
2023/03/15 00:36:52;;;;;;;9.87;3.60;;;3.80;13.80;;;;;;5049347;28;20707;-71
2023/03/15 00:39:20;;;;;;;13.40;3.53;;;4.20;15.60;;;;;;5044865;28;20444;-70
2023/03/15 00:41:46;;;;;;;5.40;3.60;;;3.70;14.70;;;;;;5044537;28;20212;-71
2023/03/15 00:44:12;;;;;;;15.83;3.73;;;3.60;14.40;;;;;;5048488;28;20470;-72
2023/03/15 00:46:37;;;;;;;9.20;4.33;;;3.50;16.10;;;;;;5049510;28;20624;-70
2023/03/15 00:49:03;;;;;;;8.60;4.17;;;3.50;17.80;;;;;;5051880;28;20193;-71
2023/03/15 00:51:29;;;;;;;16.83;4.17;;;3.50;19.70;;;;;;5047357;28;20234;-71
2023/03/15 00:53:55;;;;;;;8.03;3.50;;;3.40;20.30;;;;;;5046134;28;20329;-71
2023/03/15 00:56:23;;;;;;;7.77;4.00;;;3.30;24.30;;;;;;5035335;28;20692;-71
2023/03/15 00:58:51;;;;;;;8.10;4.00;;;3.80;29.90;;;;;;5043792;28;20525;-67
2023/03/15 01:01:21;;;;;;;7.23;3.60;;;3.30;25.00;;;;;;5035853;28;20466;-70
2023/03/15 01:03:47;;;;;;;7.37;4.20;;;3.40;23.50;;;;;;5047852;28;20546;-70
2023/03/15 01:06:16;;;;;;;8.93;4.53;;;3.20;25.40;;;;;;5039264;28;20802;-70
2023/03/15 01:08:42;;;;;;;10.03;4.10;;;3.20;28.00;;;;;;5049031;28;20569;-71
2023/03/15 01:11:11;;;;;;;9.13;4.20;;;3.10;33.20;;;;;;5046234;28;20447;-70
2023/03/15 01:13:36;;;;;;;8.63;4.10;;;3.50;33.80;;;;;;5048930;28;20443;-71
2023/03/15 01:16:02;;;;;;;6.50;3.53;;;3.10;33.30;;;;;;5038242;28;20464;-71
2023/03/15 01:18:28;;;;;;;7.83;3.77;;;3.10;33.30;;;;;;5042577;28;20230;-70
2023/03/15 01:20:54;;;;;;;7.00;3.20;;;3.10;33.20;;;;;;5031376;28;20795;-70
2023/03/15 01:23:19;;;;;;;8.03;3.80;;;3.10;33.30;;;;;;5038179;28;20210;-70
2023/03/15 01:25:45;;;;;;;8.13;3.53;;;2.90;33.10;;;;;;5046816;28;20702;-71
2023/03/15 01:28:10;;;;;;;8.60;3.03;;;2.90;33.00;;;;;;5044290;28;20209;-70
2023/03/15 01:30:36;;;;;;;5.60;3.00;;;2.80;33.00;;;;;;5037049;28;20185;-70
2023/03/15 01:33:02;;;;;;;5.60;2.73;;;2.90;33.30;;;;;;5047338;28;20360;-70
2023/03/15 01:35:27;;;;;;;8.33;2.60;;;2.50;32.90;;;;;;5048718;28;20189;-70
2023/03/15 01:37:53;;;;;;;5.53;2.63;;;3.20;33.50;;;;;;5051443;28;20280;-70
2023/03/15 01:40:18;;;;;;;7.73;2.90;;;2.80;33.10;;;;;;5047352;28;20713;-70
2023/03/15 01:43:13;;;;;;;3.37;2.30;;;3.00;33.20;;;;;;5048780;28;20224;-70
2023/03/15 01:46:00;;;;;;;5.40;2.07;;;2.70;30.90;;;;;;5040635;28;20251;-70
2023/03/15 01:48:43;;;;;;;6.60;2.73;;;2.70;33.10;;;;;;5057437;28;20441;-71
2023/03/15 01:51:38;;;;;;;5.87;2.10;;;2.60;33.10;;;;;;5047230;28;20451;-71
2023/03/15 01:54:26;;;;;;;7.27;2.90;;;2.60;33.00;;;;;;5038349;28;20481;-72
2023/03/15 01:56:56;;;;;;;4.83;3.00;;;2.50;32.80;;;;;;5043432;28;20546;-68
2023/03/15 01:59:35;;;;;;;3.80;2.70;;;2.50;32.90;;;;;;5047227;28;20474;-71
2023/03/15 02:02:03;;;;;;;14.30;2.90;;;2.40;32.80;;;;;;5037315;28;20431;-71
2023/03/15 02:04:34;;;;;;;5.97;3.00;;;2.60;33.00;;;;;;5041092;28;20466;-71
2023/03/15 02:07:02;;;;;;;5.30;2.83;;;2.70;33.00;;;;;;5040070;28;20439;-70
2023/03/15 02:09:40;;;;;;;7.20;3.30;;;2.20;32.80;;;;;;5035643;28;21056;-67
2023/03/15 02:12:06;;;;;;;6.30;3.47;;;2.00;32.60;;;;;;5036121;28;20436;-71
2023/03/15 02:14:33;;;;;;;6.30;2.87;;;2.20;32.80;;;;;;5032114;28;20428;-72
2023/03/15 02:16:58;;;;;;;6.30;3.20;;;2.10;32.90;;;;;;5033719;28;20467;-72
2023/03/15 02:19:54;;;;;;;10.20;3.80;;;2.10;32.90;;;;;;5037667;28;20436;-71
2023/03/15 02:22:46;;;;;;;4.90;3.23;;;2.10;32.60;;;;;;5042497;28;20584;-70
2023/03/15 02:25:25;;;;;;;7.13;3.43;;;2.10;35.50;;;;;;5019064;28;20439;-70
2023/03/15 02:27:50;;;;;;;6.37;3.23;;;2.10;32.60;;;;;;5032226;28;20796;-70
2023/03/15 02:30:16;;;;;;;4.83;3.37;;;2.10;32.90;;;;;;5042754;28;20440;-71
2023/03/15 02:32:42;;;;;;;6.33;3.40;;;2.00;32.90;;;;;;5047464;28;20228;-70
2023/03/15 02:35:08;;;;;;;7.63;3.50;;;1.90;38.20;;;;;;5037797;28;20687;-71
2023/03/15 02:37:33;;;;;;;5.90;3.30;;;1.90;32.60;;;;;;5032118;28;20448;-72
2023/03/15 02:39:59;;;;;;;7.57;3.47;;;1.90;36.10;;;;;;5035009;28;20211;-70
2023/03/15 02:42:25;;;;;;;6.83;2.93;;;1.80;32.80;;;;;;5055009;28;20269;-70
2023/03/15 02:44:52;;;;;;;20.17;3.47;;;1.80;32.50;;;;;;5051337;28;20178;-70
2023/03/15 02:47:24;;;;;;;4.83;2.70;;;2.10;32.60;;;;;;5048067;28;20441;-70
2023/03/15 02:49:52;;;;;;;10.70;2.97;;;1.70;35.00;;;;;;5046775;28;20431;-71
2023/03/15 02:52:18;;;;;;;5.80;2.50;;;1.60;32.20;;;;;;5045182;28;20642;-71
2023/03/15 02:54:44;;;;;;;5.60;2.60;;;1.80;32.50;;;;;;5057049;28;20937;-70
2023/03/15 02:57:11;;;;;;;3.37;2.43;;;1.50;32.30;;;;;;5049963;28;20451;-71
2023/03/15 02:59:36;;;;;;;5.17;2.80;;;1.60;37.60;;;;;;5050216;28;20738;-71
2023/03/15 03:02:02;;;;;;;9.53;2.80;;;1.90;37.50;;;;;;5046412;28;20459;-70
2023/03/15 03:04:28;;;;;;;8.90;2.70;;;1.70;40.10;;;;;;5043872;28;20620;-69
2023/03/15 03:06:53;;;;;;;4.00;2.47;;;1.70;40.70;;;;;;5042109;28;20463;-70
2023/03/15 03:09:19;;;;;;;5.27;2.00;;;1.70;32.80;;;;;;5050982;28;20872;-70
2023/03/15 03:11:44;;;;;;;5.90;2.70;;;1.70;32.50;;;;;;5050428;28;20189;-70
2023/03/15 03:14:12;;;;;;;5.23;2.50;;;1.60;32.40;;;;;;5049062;28;20193;-70
2023/03/15 03:16:39;;;;;;;2.70;2.20;;;1.70;37.60;;;;;;5050947;28;20505;-70
2023/03/15 03:19:04;;;;;;;6.37;2.60;;;2.00;36.90;;;;;;5052149;28;20822;-71
2023/03/15 03:21:30;;;;;;;4.93;2.50;;;2.00;38.20;;;;;;5046813;28;20446;-69
2023/03/15 03:23:56;;;;;;;3.73;2.33;;;1.60;43.10;;;;;;5045318;28;20209;-70
2023/03/15 03:26:26;;;;;;;5.40;2.47;;;1.10;39.10;;;;;;5048766;28;20488;-70
2023/03/15 03:28:53;;;;;;;8.50;3.03;;;1.50;40.90;;;;;;5046570;28;20334;-70
2023/03/15 03:31:24;;;;;;;8.90;3.60;;;1.70;39.80;;;;;;5045169;28;20432;-70
2023/03/15 03:33:51;;;;;;;4.37;2.80;;;1.50;40.90;;;;;;5055097;28;20431;-72
2023/03/15 03:36:16;;;;;;;8.43;2.90;;;1.80;42.70;;;;;;5044456;28;20487;-70
2023/03/15 03:38:44;;;;;;;5.67;2.80;;;1.80;44.20;;;;;;5045329;28;20534;-72
2023/03/15 03:41:12;;;;;;;5.10;3.10;;;1.60;43.30;;;;;;5050118;28;20675;-70
2023/03/15 03:43:38;;;;;;;8.07;3.23;;;1.40;41.70;;;;;;5047131;28;20562;-70
2023/03/15 03:46:04;;;;;;;7.13;3.30;;;1.40;42.80;;;;;;5053538;28;20588;-70
2023/03/15 03:48:30;;;;;;;5.47;2.97;;;1.40;44.70;;;;;;5030799;28;20194;-70
2023/03/15 03:50:56;;;;;;;10.87;3.20;;;1.60;45.50;;;;;;5037296;28;20424;-70
2023/03/15 03:53:22;;;;;;;9.67;4.13;;;1.30;43.60;;;;;;5040415;28;20444;-70
2023/03/15 03:55:47;;;;;;;9.20;3.27;;;1.30;42.90;;;;;;5045441;28;20436;-71
2023/03/15 03:58:13;;;;;;;5.17;3.30;;;1.70;43.30;;;;;;5047065;28;20199;-70
2023/03/15 04:00:38;;;;;;;6.73;3.43;;;1.30;44.80;;;;;;5050533;28;20181;-70
2023/03/15 04:03:04;;;;;;;8.70;3.77;;;1.30;45.90;;;;;;5041627;28;20630;-70
2023/03/15 04:05:30;;;;;;;5.90;3.57;;;1.60;45.30;;;;;;5048769;28;20209;-71
2023/03/15 04:07:55;;;;;;;6.20;3.70;;;1.80;45.80;;;;;;5056906;28;20279;-72
2023/03/15 04:10:25;;;;;;;9.63;3.47;;;1.60;43.50;;;;;;5047021;28;20690;-70
2023/03/15 04:12:55;;;;;;;6.73;3.60;;;1.60;44.30;;;;;;5048528;28;20185;-70
2023/03/15 04:15:21;;;;;;;6.30;3.63;;;1.20;42.80;;;;;;5048223;28;20427;-70
2023/03/15 04:17:47;;;;;;;6.73;3.50;;;1.60;44.10;;;;;;5048388;28;20525;-70
2023/03/15 04:20:14;;;;;;;7.80;4.20;;;1.20;44.80;;;;;;5063093;28;20193;-70
2023/03/15 04:22:39;;;;;;;5.87;3.33;;;1.70;45.30;;;;;;5047406;28;20567;-70
2023/03/15 04:25:06;;;;;;;12.47;4.20;;;1.70;42.70;;;;;;5037356;28;20535;-70
2023/03/15 04:27:31;;;;;;;7.70;3.97;;;1.20;39.40;;;;;;5049722;28;20209;-70
2023/03/15 04:29:57;;;;;;;8.83;4.30;;;1.40;42.70;;;;;;5048545;28;20542;-70
2023/03/15 04:32:22;;;;;;;7.40;4.20;;;1.20;42.10;;;;;;5053975;28;20177;-70
2023/03/15 04:34:50;;;;;;;5.97;3.83;;;1.50;42.30;;;;;;5048526;28;20292;-70
2023/03/15 04:37:17;;;;;;;6.90;3.63;;;1.30;46.10;;;;;;5047216;28;20205;-70
2023/03/15 04:39:42;;;;;;;7.63;4.00;;;1.30;45.40;;;;;;5048369;28;20953;-70
2023/03/15 04:42:08;;;;;;;5.80;4.13;;;1.20;41.90;;;;;;5048343;28;20570;-70
2023/03/15 04:44:34;;;;;;;7.93;4.03;;;1.10;42.20;;;;;;5050939;28;20659;-70
2023/03/15 04:47:00;;;;;;;7.07;4.23;;;;;;;;;;5048581;28;20193;-71
2023/03/15 04:49:25;;;;;;;7.23;4.00;;;1.10;41.50;;;;;;5047851;28;20177;-72
2023/03/15 04:51:51;;;;;;;8.63;3.87;;;1.00;43.40;;;;;;5041964;28;20567;-70
2023/03/15 04:54:16;;;;;;;9.83;4.90;;;1.00;40.80;;;;;;5053245;28;20172;-69
2023/03/15 04:56:42;;;;;;;6.20;4.27;;;1.50;40.10;;;;;;5048190;28;20213;-71
2023/03/15 04:59:09;;;;;;;9.00;4.37;;;1.00;38.60;;;;;;5048272;28;20185;-71
2023/03/15 05:01:35;;;;;;;7.83;4.40;;;1.50;39.90;;;;;;5031272;28;20202;-70
2023/03/15 05:04:00;;;;;;;9.70;3.60;;;;;;;;;;5044361;28;21058;-71
2023/03/15 05:06:27;;;;;;;11.03;4.43;;;1.10;38.80;;;;;;5051741;28;20216;-70
2023/03/15 05:08:53;;;;;;;8.30;4.80;;;1.40;40.20;;;;;;5049293;28;20193;-72
2023/03/15 05:11:19;;;;;;;9.23;5.90;;;1.10;37.70;;;;;;5042704;28;20473;-71
2023/03/15 05:13:45;;;;;;;10.40;6.27;;;1.40;39.10;;;;;;5043311;28;20456;-70
2023/03/15 05:16:10;;;;;;;7.40;5.00;;;1.00;34.60;;;;;;5044873;28;20528;-70
2023/03/15 05:18:36;;;;;;;11.00;5.10;;;1.00;35.90;;;;;;5044609;28;20197;-70
2023/03/15 05:21:01;;;;;;;8.87;4.47;;;1.60;35.50;;;;;;5046767;28;20280;-70
2023/03/15 05:23:27;;;;;;;8.50;4.57;;;1.10;36.00;;;;;;5044940;28;20320;-70
2023/03/15 05:25:54;;;;;;;13.40;4.17;;;1.10;29.80;;;;;;5049216;28;20193;-70
2023/03/15 05:28:24;;;;;;;4.70;3.63;;;1.50;32.20;;;;;;5048631;28;20778;-69
2023/03/15 05:30:51;;;;;;;10.43;4.47;;;1.60;32.20;;;;;;5043500;28;20521;-70
2023/03/15 05:33:16;;;;;;;6.50;4.10;;;1.70;32.30;;;;;;5047067;28;21026;-71
2023/03/15 05:35:45;;;;;;;28.73;11.60;;;1.50;30.00;;;;;;5044846;28;20538;-71
2023/03/15 05:38:14;;;;;;;17.57;9.30;;;1.90;32.60;;;;;;5040552;28;20719;-70
2023/03/15 05:40:43;;;;;;;12.70;5.93;;;1.50;32.20;;;;;;5036253;28;20445;-72
2023/03/15 05:43:09;;;;;;;11.60;4.90;;;1.60;32.20;;;;;;5039822;28;20925;-70
2023/03/15 05:45:35;;;;;;;7.57;4.27;;;1.80;32.70;;;;;;5040240;28;20546;-70
2023/03/15 05:48:01;;;;;;;11.83;4.33;;;2.10;32.60;;;;;;5048649;28;20283;-70
2023/03/15 05:50:27;;;;;;;7.60;4.30;;;2.00;32.60;;;;;;5037037;28;20530;-71
2023/03/15 05:52:53;;;;;;;9.17;4.73;;;2.00;32.70;;;;;;5042973;28;20242;-70
2023/03/15 05:55:19;;;;;;;6.20;4.30;;;1.80;32.40;;;;;;5045338;28;20192;-70
2023/03/15 05:57:44;;;;;;;9.40;4.67;;;2.00;33.40;;;;;;5048501;28;20447;-70
2023/03/15 06:00:13;;;;;;;8.03;4.20;;;1.70;32.30;;;;;;5045088;28;20216;-70
2023/03/15 06:02:39;;;;;;;8.70;4.13;;;1.80;32.40;;;;;;5039709;28;20658;-69
2023/03/15 06:05:05;;;;;;;7.10;4.07;;;2.00;35.10;;;;;;5047905;28;20837;-70
2023/03/15 06:07:31;;;;;;;6.73;4.23;;;2.00;32.60;;;;;;5048384;28;20436;-69
2023/03/15 06:09:56;;;;;;;9.33;5.03;;;2.00;32.60;;;;;;5046162;28;20692;-70
2023/03/15 06:12:22;;;;;;;8.40;3.97;;;2.60;32.90;;;;;;5038620;28;20676;-70
2023/03/15 06:14:47;;;;;;;8.00;4.40;;;2.10;32.40;;;;;;5044911;28;20625;-70
2023/03/15 06:17:13;;;;;;;14.77;3.80;;;2.70;31.80;;;;;;5053569;28;20225;-70
2023/03/15 06:19:38;;;;;;;8.93;4.03;;;2.30;27.40;;;;;;5046035;28;20189;-69
2023/03/15 06:22:04;;;;;;;6.13;4.03;;;2.40;26.70;;;;;;5036919;28;20598;-70
2023/03/15 06:24:29;;;;;;;7.20;3.73;;;2.00;21.50;;;;;;5042903;28;20185;-69
2023/03/15 06:26:55;;;;;;;9.47;4.80;;;2.50;17.60;;;;;;5040285;28;20201;-70
2023/03/15 06:29:21;;;;;;;14.47;4.67;;;2.80;19.60;;;;;;5045318;28;20651;-70
2023/03/15 06:31:51;;;;;;;9.00;4.27;;;2.60;17.90;;;;;;5048337;28;20213;-69
2023/03/15 06:34:17;;;;;;;8.73;4.53;;;2.60;13.30;;;;;;5041196;28;20450;-72
2023/03/15 06:36:43;;;;;;;7.73;3.90;;;2.60;16.20;;;;;;5035274;28;21009;-70
2023/03/15 06:39:11;;;;;;;9.27;4.77;;;3.10;13.70;;;;;;5055898;28;20278;-67
2023/03/15 06:41:43;;;;;;;6.90;4.47;;;2.80;11.90;;;;;;5054839;28;20185;-70
2023/03/15 06:44:08;;;;;;;11.90;4.50;;;2.70;9.20;;;;;;5043136;28;20463;-66
2023/03/15 06:46:34;;;;;;;11.77;4.27;;;2.70;10.50;;;;;;5045745;28;20451;-69
2023/03/15 06:49:00;;;;;;;17.20;4.00;;;3.30;15.50;;;;;;5041932;28;20171;-71
2023/03/15 06:51:25;;;;;;;11.33;4.00;;;3.00;8.90;;;;;;5044932;28;20181;-71
2023/03/15 06:53:51;;;;;;;7.20;4.23;;;2.90;7.20;;;;;;5048049;28;20181;-70
2023/03/15 06:56:17;;;;;;;12.33;4.77;;;3.00;6.00;;;;;;5047281;28;20346;-70
2023/03/15 06:58:42;;;;;;;10.60;4.27;;;3.00;1.90;;;;;;5048036;28;20232;-71
2023/03/15 07:01:14;;;;;;;7.43;4.00;;;3.00;2.20;;;;;;5056231;28;20306;-72
2023/03/15 07:03:40;;;;;;;10.37;4.43;;;3.10;3.60;;;;;;5043933;28;20209;-70
2023/03/15 07:06:06;;;;;;;13.67;5.10;;;3.20;1.10;;;;;;5051049;28;20455;-68
2023/03/15 07:08:31;;;;;;;6.47;4.03;;;3.20;1.00;;;;;;5048205;28;20802;-70
2023/03/15 07:10:57;;;;;;;8.60;4.80;;;3.20;1.00;;;;;;5050288;28;20185;-70
2023/03/15 07:13:22;;;;;;;8.00;4.20;;;3.30;1.00;;;;;;5048516;28;20272;-70
2023/03/15 07:15:52;;;;;;;9.77;4.87;;;3.40;1.00;;;;;;5038764;28;21634;-70
2023/03/15 07:18:18;;;;;;;8.83;5.10;;;3.40;1.00;;;;;;5042175;28;20713;-70
2023/03/15 07:20:44;;;;;;;6.57;4.03;;;3.40;1.00;;;;;;5032025;28;20429;-70
2023/03/15 07:23:09;;;;;;;8.20;4.50;;;3.80;1.00;;;;;;5036431;28;20605;-70
2023/03/15 07:25:35;;;;;;;11.43;4.30;;;3.50;1.00;;;;;;5043718;28;20240;-72
2023/03/15 07:28:00;;;;;;;10.00;4.50;;;3.80;2.20;;;;;;5038673;28;20204;-71
2023/03/15 07:30:26;;;;;;;13.77;4.63;;;3.90;1.00;;;;;;5047017;28;20669;-70
2023/03/15 07:32:52;;;;;;;9.23;4.07;;;3.60;1.00;;;;;;5048166;28;20196;-71
2023/03/15 07:35:17;;;;;;;10.03;4.60;;;3.70;1.70;;;;;;5049622;28;20419;-71
2023/03/15 07:37:43;;;;;;;9.10;4.60;;;3.80;1.00;;;;;;5041258;28;20210;-70
2023/03/15 07:40:09;;;;;;;9.83;4.80;;;3.80;1.00;;;;;;5036575;28;20220;-70
2023/03/15 07:42:36;;;;;;;11.60;5.53;;;3.80;1.00;;;;;;5049646;28;20204;-70
2023/03/15 07:45:03;;;;;;;12.20;4.67;;;3.80;1.00;;;;;;5040376;28;20424;-67
2023/03/15 07:47:29;;;;;;;10.10;4.97;;;3.80;1.00;;;;;;5053923;28;20874;-66
2023/03/15 07:49:55;;;;;;;10.87;4.77;;;3.80;1.00;;;;;;5043366;28;20523;-67
2023/03/15 07:52:21;;;;;;;9.90;4.60;;;3.80;1.00;;;;;;5046601;28;20178;-71
2023/03/15 07:54:47;;;;;;;11.50;4.33;;;4.00;1.00;;;;;;5044115;28;20594;-68
2023/03/15 07:57:12;;;;;;;8.20;4.23;;;4.10;1.00;;;;;;5054918;28;20247;-66
2023/03/15 07:59:38;;;;;;;9.53;4.83;;;4.30;1.00;;;;;;5045812;28;20930;-70
2023/03/15 08:02:04;;;;;;;9.40;4.63;;;4.50;1.00;;;;;;5047120;28;20496;-70
2023/03/15 08:04:29;;;;;;;8.13;4.60;;;4.60;1.00;;;;;;5046788;28;20173;-69
2023/03/15 08:06:55;;;;;;;9.70;5.30;;;4.60;1.00;;;;;;5048507;28;20993;-70
2023/03/15 08:09:21;;;;;;;11.87;5.17;;;4.90;1.00;;;;;;5046328;28;20192;-69
2023/03/15 08:11:46;;;;;;;12.60;4.77;;;4.60;1.00;;;;;;5046467;28;20232;-69
2023/03/15 08:14:12;;;;;;;6.30;4.10;;;4.90;1.00;;;;;;5052299;28;20181;-69
2023/03/15 08:16:37;;;;;;;10.60;4.17;;;4.70;1.00;;;;;;5050519;28;20217;-71
2023/03/15 08:19:03;;;;;;;6.70;4.00;;;4.70;1.00;;;;;;5048329;28;20303;-67
2023/03/15 08:21:28;;;;;;;8.40;3.80;;;4.90;1.00;;;;;;5056594;28;20271;-67
2023/03/15 08:23:54;;;;;;;9.93;4.20;;;5.00;1.00;;;;;;5047807;28;20212;-70
2023/03/15 08:26:19;;;;;;;9.37;3.73;;;5.10;1.00;;;;;;5047316;28;20275;-68
2023/03/15 08:28:45;;;;;;;14.70;4.50;;;5.20;1.00;;;;;;5046526;28;20702;-69
2023/03/15 08:31:12;;;;;;;10.37;4.63;;;5.30;1.00;;;;;;5050124;28;20181;-70
2023/03/15 08:33:38;;;;;;;12.67;4.53;;;5.30;1.00;;;;;;5047746;28;20552;-69
2023/03/15 08:36:04;;;;;;;9.63;4.17;;;5.40;1.00;;;;;;5036656;28;20473;-71
2023/03/15 08:38:30;;;;;;;13.90;4.90;;;5.40;1.00;;;;;;5041171;28;20555;-71
2023/03/15 08:40:57;;;;;;;8.03;4.20;;;5.30;1.00;;;;;;5054901;28;20584;-69
2023/03/15 08:43:22;;;;;;;12.50;4.27;;;5.30;1.00;;;;;;5035145;28;20214;-69
2023/03/15 08:45:49;;;;;;;10.60;4.80;;;5.40;1.00;;;;;;5043810;28;20435;-70
2023/03/15 08:48:14;;;;;;;8.10;4.23;;;5.40;1.00;;;;;;5047733;28;20243;-69
2023/03/15 08:50:40;;;;;;;7.97;4.40;;;5.50;1.00;;;;;;5053467;28;20534;-69
2023/03/15 08:53:06;;;;;;;9.20;4.27;;;5.50;1.00;;;;;;5044775;28;20264;-69
2023/03/15 08:55:32;;;;;;;7.07;4.00;;;5.40;1.00;;;;;;5051397;28;20579;-69
2023/03/15 08:58:00;;;;;;;8.63;3.47;;;5.30;1.00;;;;;;5046049;28;20459;-69
2023/03/15 09:00:26;;;;;;;9.00;3.90;;;5.20;1.00;;;;;;5045613;28;20539;-69
2023/03/15 09:02:52;;;;;;;9.00;4.93;;;5.10;1.00;;;;;;5065553;28;20510;-70
2023/03/15 09:05:18;;;;;;;10.10;5.47;;;5.10;1.00;;;;;;5045812;28;20913;-70
2023/03/15 09:07:44;;;;;;;11.37;3.90;;;5.10;1.00;;;;;;5048481;28;20373;-71
2023/03/15 09:10:13;;;;;;;7.33;3.33;;;5.20;1.00;;;;;;5042153;28;20431;-71
2023/03/15 09:12:40;;;;;;;8.20;3.80;;;5.40;1.00;;;;;;5043855;28;20951;-69
2023/03/15 09:15:06;;;;;;;6.33;3.43;;;5.50;1.00;;;;;;5043820;28;20946;-69
2023/03/15 09:17:31;;;;;;;6.70;3.30;;;5.60;1.00;;;;;;5049767;28;20562;-70
2023/03/15 09:19:57;;;;;;;9.43;3.83;;;5.60;1.00;;;;;;5049685;28;20918;-70
2023/03/15 09:22:22;;;;;;;6.93;4.00;;;5.60;1.00;;;;;;5041517;28;20205;-70
2023/03/15 09:24:48;;;;;;;5.70;3.87;;;5.70;1.00;;;;;;5048674;28;20272;-71
2023/03/15 09:27:13;;;;;;;11.50;3.97;;;5.60;1.00;;;;;;5053335;28;20192;-71
2023/03/15 09:29:39;;;;;;;8.53;4.33;;;5.60;1.00;;;;;;5065372;28;20200;-71
2023/03/15 09:32:04;;;;;;;8.77;3.40;;;5.60;1.00;;;;;;5049196;28;20177;-71
2023/03/15 09:34:30;;;;;;;7.33;3.30;;;5.60;1.00;;;;;;5052341;28;20264;-70
2023/03/15 09:36:56;;;;;;;9.07;3.73;;;5.50;1.00;;;;;;5055118;28;20219;-71
2023/03/15 09:39:22;;;;;;;6.27;3.43;;;5.50;1.00;;;;;;5051209;28;20219;-66
2023/03/15 09:41:59;;;;;;;7.87;3.10;;;5.60;1.00;;;;;;5057290;28;20182;-72
2023/03/15 09:44:37;;;;;;;5.70;3.23;;;5.80;1.00;;;;;;5037805;28;20488;-70
2023/03/15 09:47:09;;;;;;;7.23;3.03;;;6.00;1.00;;;;;;5058958;28;20512;-70
2023/03/15 09:49:40;;;;;;;14.83;3.80;;;6.20;1.00;;;;;;5049717;28;20431;-70
2023/03/15 09:52:25;;;;;;;10.53;4.87;;;6.20;1.00;;;;;;5042902;28;20426;-70
2023/03/15 09:54:59;;;;;;;10.00;3.37;;;6.10;1.00;;;;;;5034918;28;20447;-72
2023/03/15 09:57:58;;;;;;;8.00;3.10;;;6.00;1.00;;;;;;5047036;28;20474;-71
2023/03/15 10:00:36;;;;;;;4.60;2.40;;;5.90;1.00;;;;;;5041995;28;20447;-71
2023/03/15 10:03:05;;;;;;;7.70;3.30;;;5.60;1.00;;;;;;5042380;28;21127;-71
2023/03/15 10:05:55;;;;;;;5.47;2.70;;;5.20;1.00;;;;;;5035633;28;20427;-70
2023/03/15 10:08:21;;;;;;;5.50;2.80;;;5.00;1.00;;;;;;5029527;28;20773;-68
2023/03/15 10:10:59;;;;;;;4.93;3.17;;;5.10;1.00;;;;;;5044351;28;20543;-70
2023/03/15 10:13:55;;;;;;;6.93;3.00;;;5.00;1.00;;;;;;5040702;28;20193;-70
2023/03/15 10:16:41;;;;;;;7.00;3.37;;;4.90;1.00;;;;;;5017923;28;20456;-67
2023/03/15 10:19:28;;;;;;;7.70;3.63;;;4.90;1.00;;;;;;5038682;28;20461;-67
2023/03/15 10:22:00;;;;;;;6.43;3.10;;;4.80;1.00;;;;;;5040737;28;20957;-69
2023/03/15 10:24:34;;;;;;;6.40;3.40;;;4.50;1.00;;;;;;5040778;28;20520;-68
2023/03/15 10:27:32;;;;;;;7.80;4.20;;;4.40;1.00;;;;;;5045492;28;20971;-72
2023/03/15 10:29:59;;;;;;;5.43;3.70;;;4.60;1.00;;;;;;5037595;28;20470;-70
2023/03/15 10:32:33;;;;;;;6.30;3.03;;;4.90;1.00;;;;;;5048999;28;20439;-69
2023/03/15 10:34:59;;;;;;;5.10;3.03;;;5.20;1.00;;;;;;5051689;28;20434;-69
2023/03/15 10:37:25;;;;;;;5.77;2.70;;;5.50;1.00;;;;;;5051298;28;20531;-69
2023/03/15 10:39:57;;;;;;;6.40;2.57;;;5.60;1.00;;;;;;5056825;28;20499;-66
2023/03/15 10:42:28;;;;;;;3.60;2.43;;;5.60;1.00;;;;;;5038539;28;20192;-67
2023/03/15 10:44:55;;;;;;;7.10;3.80;;;5.70;1.00;;;;;;5039526;28;20424;-69
2023/03/15 10:47:21;;;;;;;8.90;3.60;;;5.90;1.00;;;;;;5032988;28;20437;-69
2023/03/15 10:49:48;;;;;;;7.27;2.93;;;5.80;1.00;;;;;;5051792;28;20420;-70
2023/03/15 10:52:39;;;;;;;9.23;2.97;;;5.70;1.00;;;;;;5042248;28;20831;-70
2023/03/15 10:55:18;;;;;;;6.67;2.60;;;5.70;1.00;;;;;;5040522;28;20416;-66
2023/03/15 10:57:54;;;;;;;10.53;2.93;;;5.80;1.00;;;;;;5035202;28;20443;-67
2023/03/15 11:00:29;;;;;;;8.50;3.27;;;5.90;1.00;;;;;;5046313;28;20419;-68
2023/03/15 11:03:14;;;;;;;5.23;2.47;;;6.00;1.00;;;;;;5047318;28;20459;-67
2023/03/15 11:05:45;;;;;;;4.40;2.57;;;6.00;1.00;;;;;;5040754;28;20430;-68
2023/03/15 11:08:21;;;;;;;4.10;2.13;;;6.10;1.00;;;;;;5050553;28;20454;-67
2023/03/15 11:10:55;;;;;;;4.17;2.40;;;6.10;1.00;;;;;;5041389;28;20421;-66
2023/03/15 11:13:23;;;;;;;4.53;2.97;;;6.00;1.00;;;;;;5043851;28;20425;-66
2023/03/15 11:15:57;;;;;;;4.17;2.50;;;5.90;1.00;;;;;;5045180;28;20435;-67
2023/03/15 11:18:32;;;;;;;5.80;2.70;;;6.00;1.00;;;;;;5042151;28;20428;-67
2023/03/15 11:20:59;;;;;;;6.43;3.60;;;6.30;1.00;;;;;;5043326;28;20443;-71
2023/03/15 11:23:28;;;;;;;4.77;3.07;;;6.60;1.00;;;;;;5049656;28;20486;-67
2023/03/15 11:25:55;;;;;;;7.37;3.07;;;7.10;1.00;;;;;;5051712;28;20419;-66
2023/03/15 11:28:29;;;;;;;6.23;3.47;;;7.10;1.00;;;;;;5043210;28;20836;-67
2023/03/15 11:30:59;;;;;;;8.13;3.53;;;7.00;1.00;;;;;;5053353;28;20470;-68
2023/03/15 11:33:51;;;;;;;7.07;3.73;;;6.80;1.00;;;;;;5051678;28;20423;-66
2023/03/15 11:36:23;;;;;;;5.50;3.33;;;6.80;1.00;;;;;;5048894;28;20451;-66
2023/03/15 11:38:49;;;;;;;5.53;3.00;;;7.00;1.00;;;;;;5048848;28;20740;-68
2023/03/15 11:41:34;;;;;;;11.80;3.00;;;7.00;1.00;;;;;;5060849;28;20779;-70
2023/03/15 11:44:23;;;;;;;7.13;2.70;;;7.00;1.00;;;;;;5043296;28;20204;-70
2023/03/15 11:46:56;;;;;;;5.73;3.10;;;6.70;1.00;;;;;;5048490;28;20453;-69
2023/03/15 11:49:45;;;;;;;3.60;3.00;;;6.60;1.00;;;;;;5058025;28;20793;-67
2023/03/15 11:52:11;;;;;;;5.27;3.27;;;6.60;1.00;;;;;;5044860;28;20435;-68
2023/03/15 11:54:37;;;;;;;8.67;3.70;;;6.70;1.00;;;;;;5051183;28;20484;-71
2023/03/15 11:57:05;;;;;;;5.93;3.87;;;6.60;1.00;;;;;;5043172;28;20444;-71
2023/03/15 11:59:37;;;;;;;6.90;3.83;;;6.50;1.00;;;;;;5047824;28;20252;-71
2023/03/15 12:02:25;;;;;;;9.13;3.73;;;6.50;1.80;;;;;;5044037;28;20437;-71
2023/03/15 12:04:53;;;;;;;8.47;3.70;;;6.40;1.00;;;;;;5039470;28;20792;-71
2023/03/15 12:07:18;;;;;;;7.90;4.90;;;6.30;4.10;;;;;;5043280;28;20643;-71
2023/03/15 12:10:03;;;;;;;6.40;4.07;;;6.30;3.50;;;;;;5048484;28;20534;-70
2023/03/15 12:12:28;;;;;;;4.97;3.70;;;6.10;2.60;;;;;;5050700;28;20196;-69
2023/03/15 12:15:07;;;;;;;6.80;3.93;;;6.00;1.00;;;;;;5049258;28;20439;-71
2023/03/15 12:17:46;;;;;;;6.57;3.63;;;6.00;8.40;;;;;;5049540;28;20296;-71
2023/03/15 12:20:18;;;;;;;4.80;3.40;;;6.10;12.30;;;;;;5047145;28;20798;-71
2023/03/15 12:22:53;;;;;;;4.63;3.27;;;6.20;8.80;;;;;;5047488;28;20482;-67
2023/03/15 12:25:29;;;;;;;6.03;3.80;;;6.20;5.00;;;;;;5047776;28;20960;-71
2023/03/15 12:27:56;;;;;;;6.27;3.33;;;6.40;5.20;;;;;;5053206;28;20451;-70
2023/03/15 12:30:41;;;;;;;4.40;3.30;;;6.80;4.60;;;;;;5048160;28;20957;-70
2023/03/15 12:33:16;;;;;;;5.03;3.57;;;7.00;4.50;;;;;;5036821;28;20513;-70
2023/03/15 12:35:42;;;;;;;9.60;3.20;;;7.00;1.00;;;;;;5040473;28;20530;-72
2023/03/15 12:38:16;;;;;;;4.20;3.33;;;7.10;1.00;;;;;;5038298;28;20550;-70
2023/03/15 12:40:57;;;;;;;7.03;4.20;;;7.10;1.00;;;;;;5032495;28;20182;-71
2023/03/15 12:43:38;;;;;;;4.63;3.10;;;7.30;4.30;;;;;;5048133;28;20490;-71
2023/03/15 12:46:05;;;;;;;4.70;3.60;;;10.00;1.00;;;;;;5041195;28;20452;-71
2023/03/15 12:48:31;;;;;;;9.17;4.07;;;7.70;1.00;;;;;;5034064;28;20420;-70
2023/03/15 12:51:02;;;;;;;5.67;4.37;;;7.90;1.00;;;;;;5037737;28;20439;-70
2023/03/15 12:53:35;;;;;;;5.00;3.63;;;8.30;1.00;;;;;;5044247;28;20806;-70
2023/03/15 12:56:37;;;;;;;6.67;4.87;;;9.00;1.00;;;;;;5042320;28;20466;-71
2023/03/15 12:59:39;;;;;;;5.40;4.00;;;9.30;1.00;;;;;;5037010;28;20926;-68
2023/03/15 13:02:17;;;;;;;5.60;3.83;;;9.40;1.00;;;;;;5038366;28;20463;-71
2023/03/15 13:04:42;;;;;;;5.70;4.30;;;9.00;1.00;;;;;;5040992;28;20436;-70
2023/03/15 13:07:37;;;;;;;6.70;4.80;;;8.40;1.00;;;;;;5054228;28;20519;-70
2023/03/15 13:10:03;;;;;;;8.13;5.40;;;8.00;1.00;;;;;;5040293;28;20259;-69